Day, FL

7:10 PM EDT on August 24, 2016 (GMT -0400)
Florida Olive Farms | | Change Station

Elev 102 ft 30.28 °N, 83.18 °W | Updated 40 seconds ago

Scattered Clouds
Scattered Clouds
88.6 °F
Feels Like 96 °F
N
5.0
Wind Variable Wind from NE
Gusts 10.0 mph

Today
High -- | Low -- °F
--% Chance of Precip.
Yesterday
High -- | Low -- °F
Precip. -- in
Pressure 30.09 in
Visibility 10.0 miles
Clouds Scattered Clouds 9000 ft
Heat Index 96 °F
Dew Point 73 °F
Humidity 60%
Rainfall 0.02 in
Snow Depth Not available.
7:05 AM 8:04 PM
Waning Gibbous, 52% visible
METAR K40J 242255Z AUTO 06004KT 10SM SCT090 32/21 A3009 RMK AO2 T03220205
Pressure 30.09 in
Visibility 10.0 miles
Clouds Scattered Clouds 9000 ft
Heat Index 96 °F
Dew Point 73 °F
Humidity 60%
Rainfall 0.02 in
Snow Depth Not available.
7:05 AM 8:04 PM
Waning Gibbous, 52% visible
METAR K40J 242255Z AUTO 06004KT 10SM SCT090 32/21 A3009 RMK AO2 T03220205
A tropical disturbance we've monitored since last week, may have a dangerous future in store for the southeast U.S. and Gulf coasts this weekend into next week. The National Weather Service has issued a flash flood watch for Puerto Rico and the U.S. Virgin Islands. Rainfall totals of 2-4 inches (locally higher) are expected through Wednesday night in those areas.

The National Hurricane Center says this system has a medium to high chance of development into a tropical depression or tropical storm over the next 2 to 5 days. A tight consensus of our guidance suggests the disturbance should continue in a general west or west-northwest trajectory the next several days.

10-Day Weather Forecast

Almanac

Astronomy

Aug. 24, 2016 Rise Set
Actual Time
Civil Twilight
Nautical Twilight
Astronomical Twilight
Moon
Length of Visible Light
Length of Day
Tomorrow will be .
, % of the Moon is Illuminated

Today's Extremes

State Highs State Lows

Community

WunderPhotos

Upload Photos

1,934,730 photos uploaded!

WunderBlog® & News

Nearby

Air Quality

  Air Quality AQ Index Pollutant
Not available.

Snow Depth

Station Depth Elevation

Earthquake Activity

City Distance Mag. Time & Date
Minimum magnitude displayed is 2.5.

Coastal Water Temperatures

Place Temperature

Stations

Nearby Weather Stations

Station Location Temp. Windchill Dew Point Humidity Wind Precip. Elev Updated Type
                   

Watches & Warnings

There are currently no watches in effect.